METAR Data
IDs: Format: Raw Decoded Include TAF

Data at: 1348 UTC 10 Aug 2022

KFAT 101253Z 31011KT 10SM FEW100 SCT200 20/11 A3000 RMK AO2 SLP153 T02000111
KFAT 101153Z 30008KT 10SM SCT200 21/11 A2998 RMK AO2 SLP149 T02060111 10278 20206 52010
KFAT 101053Z 31010KT 10SM SCT200 21/11 A2997 RMK AO2 SLP145 T02110111
KFAT 100953Z 30013KT 10SM BKN200 22/12 A2996 RMK AO2 SLP142 T02170122
KFAT 100853Z 31011KT 10SM BKN200 23/13 A2995 RMK AO2 SLP139 T02280128 51010
KFAT 100753Z 31013KT 10SM BKN200 24/13 A2994 RMK AO2 SLP135 T02390128 403720222
KFAT 100653Z 29011KT 10SM SCT200 26/13 A2994 RMK AO2 SLP132 T02560133
KFAT 100553Z 31012KT 10SM BKN200 28/13 A2992 RMK AO2 SLP128 T02780128 10372 20278 51019
KFAT 100453Z 31011KT 10SM SCT200 29/13 A2991 RMK AO2 SLP124 T02940128
KFAT 100353Z 31010KT 10SM FEW050 SCT150 SCT200 31/12 A2989 RMK AO2 SLP115 T03110122
KFAT 100253Z 31014KT 10SM SCT080 SCT150 SCT200 33/12 A2987 RMK AO2 SLP109 MTNS OBSC HZ DSNT E-S T03280122 53006
KFAT 100153Z 31013KT 10SM FEW080 SCT130 SCT200 35/12 A2985 RMK AO2 SLP103 MTNS OBSC HZ DSNT N-E-S T03500122
KFAT 100053Z 29010KT 10SM FEW080 SCT130 SCT200 37/12 A2985 RMK AO2 SLP102 MTNS OBSC HZ DSNT N-E-S T03670117
KFAT 092353Z VRB03KT 10SM FEW080 SCT130 SCT200 37/10 A2985 RMK AO2 SLP103 MTNS OBSC HZ DSNT N-E-S T03670100 10372 20289 56019
KFAT 092253Z 00000KT 10SM FEW080 BKN130 BKN200 36/11 A2987 RMK AO2 SLP108 MTNS OBSC HZ DSNT N-E-S T03610111
KFAT 092153Z 27005KT 10SM FEW070 BKN200 35/11 A2989 RMK AO2 SLP116 MTNS OBSC HZ DSNT N-E-S T03500111
KFAT 092053Z 35005KT 10SM BKN200 34/10 A2991 RMK AO2 SLP123 MTNS OBSC HZ DSNT N-E-S T03440100 58015
KFAT 091953Z 28004KT 10SM BKN200 33/10 A2993 RMK AO2 SLP130 MTNS OBSC HZ DSNT N-E-S T03280100
KFAT 091853Z 27004KT 10SM BKN200 31/10 A2995 RMK AO2 SLP136 MTNS OBSC HZ DSNT N-E-S T03110100
KFAT 091753Z 28005KT 10SM SCT200 29/10 A2995 RMK AO2 SLP138 MTNS OBSC HZ DSNT N-E-S T02890100 10289 20222 51008
KFAT 091653Z 30010KT 10SM SCT200 28/10 A2995 RMK AO2 SLP136 MTNS OBSC HZ DSNT N-E-S T02780100
KFAT 091553Z 30009KT 10SM SCT200 25/11 A2994 RMK AO2 SLP134 MTNS OBSC HZ DSNT N-E-S T02500111
KFAT 091453Z 30009KT 10SM SCT200 23/10 A2993 RMK AO2 SLP130 T02330100 51013
KFAT 091353Z 32008KT 10SM FEW150 SCT200 22/11 A2992 RMK AO2 SLP126 T02220106
KFAT 091253Z 30007KT 10SM FEW150 SCT200 22/11 A2990 RMK AO2 SLP121 T02220111
KFAT 091153Z 31008KT 10SM CLR 23/12 A2989 RMK AO2 SLP116 T02280117 10283 20228 53000
KFAT 091053Z 33007KT 10SM CLR 23/12 A2988 RMK AO2 SLP114 T02330122
KFAT 090953Z 33007KT 10SM FEW200 24/12 A2988 RMK AO2 SLP113 T02390122
KFAT 090853Z 32009KT 10SM CLR 25/12 A2989 RMK AO2 SLP116 T02500122 58001
KFAT 090753Z 32010KT 10SM CLR 26/13 A2990 RMK AO2 SLP121 T02560128 403670211
KFAT 090653Z 31009KT 10SM CLR 27/13 A2989 RMK AO2 SLP118 T02720133
KFAT 090553Z 31010KT 10SM CLR 28/13 A2989 RMK AO2 SLP117 T02830128 10367 20283 51015
KFAT 090453Z 30012KT 10SM CLR 30/12 A2988 RMK AO2 SLP113 T03000122
KFAT 090353Z 30010KT 10SM FEW070 FEW130 SCT200 32/12 A2986 RMK AO2 SLP108 T03170117
KFAT 090253Z 31010KT 10SM FEW070 SCT130 SCT200 33/10 A2985 RMK AO2 SLP102 TCU OMTNS DSNT NE-SE MTNS OBSC HZ DSNT E-S T03330100 53002
KFAT 090153Z 30010KT 10SM FEW070 SCT130 SCT200 35/12 A2984 RMK AO2 SLP099 TCU OMTNS DSNT NE-SE MTNS OBSC HZ DSNT E-S T03500122